Time;durP1;ratioP1;P1;durP2;ratioP2;P2;SDS_P1;SDS_P2;PMS_P1;PMS_P2;Temp;Humidity;BMP_temperature;BMP_pressure;BME280_temperature;BME280_humidity;BME280_pressure;Samples;Min_cycle;Max_cycle;Signal;HPM_P1;HPM_P2
2021/03/17 00:00:40;;;;;;;;;;;;;;;-0.95;100.00;101214.00;5072346;28;19924;-71
2021/03/17 00:03:25;;;;;;;;;;;;;;;-0.93;100.00;101220.16;5072567;28;20463;-71
2021/03/17 00:06:09;;;;;;;;;;;;;;;-0.88;100.00;101212.94;5072038;28;20412;-71
2021/03/17 00:08:54;;;;;;;;;;;;;;;-0.82;100.00;101213.69;5072006;28;20412;-70
2021/03/17 00:11:38;;;;;;;;;;;;;;;-0.79;100.00;101217.13;5072360;28;20297;-70
2021/03/17 00:14:23;;;;;;;;;;;;;;;-0.74;100.00;101209.03;5072038;28;19974;-71
2021/03/17 00:17:08;;;;;;;;;;;;;;;-0.71;100.00;101211.59;5071826;28;19950;-71
2021/03/17 00:19:52;;;;;;;;;;;;;;;-0.68;100.00;101215.06;5072228;28;20026;-71
2021/03/17 00:22:37;;;;;;;;;;;;;;;-0.67;100.00;101213.25;5072187;28;19932;-71
2021/03/17 00:25:22;;;;;;;;;;;;;;;-0.64;100.00;101213.22;5071986;28;20411;-71
2021/03/17 00:28:06;;;;;;;;;;;;;;;-0.64;100.00;101217.66;5071552;28;20374;-71
2021/03/17 00:30:52;;;;;;;;;;;;;;;-0.62;100.00;101218.50;5071766;28;19931;-71
2021/03/17 00:33:36;;;;;;;;;;;;;;;-0.59;100.00;101213.97;5071709;28;19932;-71
2021/03/17 00:36:20;;;;;;;;;;;;;;;-0.59;100.00;101213.97;5071612;28;19938;-70
2021/03/17 00:39:05;;;;;;;;;;;;;;;-0.56;100.00;101216.53;5071815;28;19928;-71
2021/03/17 00:41:50;;;;;;;;;;;;;;;-0.53;100.00;101215.56;5071858;28;19932;-71
2021/03/17 00:44:34;;;;;;;;;;;;;;;-0.47;100.00;101220.72;5071301;28;19929;-71
2021/03/17 00:47:19;;;;;;;;;;;;;;;-0.44;100.00;101210.00;5071365;28;19951;-71
2021/03/17 00:49:45;;;;;;;;;;;;;;;-0.41;100.00;101217.91;5071509;28;19932;-71
2021/03/17 00:52:12;;;;;;;;;;;;;;;-0.39;100.00;101212.53;5071411;28;19974;-71
2021/03/17 00:54:57;;;;;;;;;;;;;;;-0.35;100.00;101211.50;5071317;28;19947;-70
2021/03/17 00:57:34;;;;;;;;;;;;;;;-0.32;100.00;101213.22;5053212;28;19935;-71
2021/03/17 01:00:00;;;;;;;;;;;;;;;-0.31;100.00;101213.16;5053510;28;19924;-71
2021/03/17 01:02:27;;;;;;;;;;;;;;;-0.31;100.00;101212.31;5071394;28;19970;-71
2021/03/17 01:04:53;;;;;;;;;;;;;;;-0.30;100.00;101214.06;5071017;28;19924;-71
2021/03/17 01:07:19;;;;;;;;;;;;;;;-0.31;100.00;101207.84;5071266;28;19925;-71
2021/03/17 01:09:45;;;;;;;;;;;;;;;-0.30;100.00;101206.06;5071294;28;19924;-71
2021/03/17 01:12:11;;;;;;;;;;;;;;;-0.25;100.00;101214.81;5053436;28;19971;-71
2021/03/17 01:14:37;;;;;;;;;;;;;;;-0.23;100.00;101204.97;5071227;28;20337;-71
2021/03/17 01:17:03;;;;;;;;;;;;;;;-0.18;100.00;101214.56;5070443;28;20001;-71
2021/03/17 01:19:30;;;;;;;;;;;;;;;-0.13;100.00;101211.78;5071016;28;19929;-71
2021/03/17 01:21:56;;;;;;;;;;;;;;;-0.09;100.00;101216.13;5070917;28;20263;-71
2021/03/17 01:24:22;;;;;;;;;;;;;;;-0.06;100.00;101212.50;5071213;28;20037;-71
2021/03/17 01:26:48;;;;;;;;;;;;;;;-0.03;100.00;101215.06;5070874;28;19978;-70
2021/03/17 01:29:14;;;;;;;;;;;;;;;-0.02;100.00;101212.34;5071037;28;19932;-70
2021/03/17 01:31:39;;;;;;;;;;;;;;;0.01;100.00;101208.69;5071182;28;19929;-70
2021/03/17 01:34:05;;;;;;;;;;;;;;;0.05;100.00;101210.34;5070973;28;19932;-70
2021/03/17 01:36:32;;;;;;;;;;;;;;;0.08;100.00;101210.28;5070803;28;19998;-70
2021/03/17 01:38:58;;;;;;;;;;;;;;;0.12;100.00;101203.94;5070642;28;19967;-70
2021/03/17 01:41:24;;;;;;;;;;;;;;;0.15;100.00;101208.31;5071240;28;19928;-69
2021/03/17 01:43:50;;;;;;;;;;;;;;;0.19;100.00;101201.94;5071175;28;19931;-70
2021/03/17 01:46:16;;;;;;;;;;;;;;;0.22;100.00;101207.19;5071414;28;20393;-70
2021/03/17 01:48:41;;;;;;;;;;;;;;;0.27;100.00;101210.59;5071629;28;20443;-70
2021/03/17 01:51:07;;;;;;;;;;;;;;;0.31;100.00;101198.91;5071396;28;19925;-70
2021/03/17 01:53:36;;;;;;;;;;;;;;;0.33;100.00;101215.75;5053378;28;19924;-70
2021/03/17 01:56:02;;;;;;;;;;;;;;;0.37;100.00;101202.31;5070710;28;20429;-70
2021/03/17 01:58:29;;;;;;;;;;;;;;;0.40;100.00;101205.75;5070488;28;19939;-70
2021/03/17 02:00:55;;;;;;;;;;;;;;;0.41;100.00;101202.16;5070746;28;19924;-70
2021/03/17 02:03:21;;;;;;;;;;;;;;;0.45;100.00;101202.94;5070809;28;19928;-70
2021/03/17 02:05:48;;;;;;;;;;;;;;;0.44;100.00;101207.41;5069729;28;19970;-70
2021/03/17 02:08:15;;;;;;;;;;;;;;;0.45;100.00;101209.13;5070372;28;19933;-70
2021/03/17 02:10:42;;;;;;;;;;;;;;;0.46;100.00;101202.03;5070583;28;19925;-70
2021/03/17 02:13:35;;;;;;;;;;;;;;;0.44;100.00;101203.84;5070382;28;19935;-70
2021/03/17 02:16:03;;;;;;;;;;;;;;;0.43;100.00;101205.66;5023006;28;20582;-70
2021/03/17 02:18:34;;;;;;;;;;;;;;;0.36;100.00;101200.56;5070683;28;20382;-70
2021/03/17 02:21:13;;;;;;;;;;;;;;;0.33;100.00;101205.09;5070626;28;19924;-70
2021/03/17 02:23:44;;;;;;;;;;;;;;;0.30;100.00;101196.28;5070819;28;19924;-70
2021/03/17 02:26:17;;;;;;;;;;;;;;;0.25;100.00;101206.22;5070429;28;19997;-70
2021/03/17 02:29:00;;;;;;;;;;;;;;;0.21;100.00;101200.09;5072676;28;20398;-70
2021/03/17 02:31:44;;;;;;;;;;;;;;;0.21;100.00;101207.25;5074139;28;19924;-70
2021/03/17 02:34:13;;;;;;;;;;;;;;;0.21;100.00;101199.22;5073774;28;20432;-70
2021/03/17 02:36:43;;;;;;;;;;;;;;;0.18;100.00;101197.53;5055819;28;20379;-70
2021/03/17 02:39:12;;;;;;;;;;;;;;;0.18;100.00;101199.34;5073979;28;19928;-70
2021/03/17 02:41:41;;;;;;;;;;;;;;;0.16;100.00;101200.25;5073798;28;19924;-70
2021/03/17 02:44:10;;;;;;;;;;;;;;;0.19;100.00;101203.72;5073750;28;19939;-70
2021/03/17 02:46:39;;;;;;;;;;;;;;;0.19;100.00;101206.41;5073503;28;20352;-70
2021/03/17 02:49:06;;;;;;;;;;;;;;;0.19;100.00;101203.72;5073776;28;19932;-70
2021/03/17 02:51:35;;;;;;;;;;;;;;;0.20;100.00;101202.81;5073436;28;19932;-70
2021/03/17 02:54:02;;;;;;;;;;;;;;;0.23;100.00;101208.06;5073581;28;19931;-70
2021/03/17 02:56:30;;;;;;;;;;;;;;;0.21;100.00;101201.91;5073221;28;20421;-70
2021/03/17 02:58:57;;;;;;;;;;;;;;;0.22;100.00;101207.19;5073336;28;19931;-70
2021/03/17 03:01:24;;;;;;;;;;;;;;;0.21;100.00;101200.09;5073458;28;19978;-70
2021/03/17 03:03:50;;;;;;;;;;;;;;;0.22;100.00;101196.50;5073235;28;19966;-70
2021/03/17 03:06:16;;;;;;;;;;;;;;;0.20;100.00;101205.47;5073193;28;19960;-70
2021/03/17 03:08:43;;;;;;;;;;;;;;;0.18;100.00;101205.53;5073328;28;19924;-70
2021/03/17 03:11:10;;;;;;;;;;;;;;;0.18;100.00;101210.00;5072906;28;19925;-70
2021/03/17 03:13:37;;;;;;;;;;;;;;;0.15;100.00;101205.63;5055399;28;20385;-70
2021/03/17 03:16:04;;;;;;;;;;;;;;;0.13;100.00;101212.81;5072980;28;19925;-70
2021/03/17 03:18:32;;;;;;;;;;;;;;;0.06;100.00;101206.78;5072957;28;20003;-70
2021/03/17 03:20:59;;;;;;;;;;;;;;;0.04;100.00;101210.41;5072976;28;19977;-70
2021/03/17 03:23:25;;;;;;;;;;;;;;;0.02;100.00;101214.94;5073131;28;19959;-70
2021/03/17 03:25:52;;;;;;;;;;;;;;;-0.01;100.00;101210.56;5072650;28;19955;-70
2021/03/17 03:28:19;;;;;;;;;;;;;;;-0.01;100.00;101215.91;5054777;28;19970;-70
2021/03/17 03:30:46;;;;;;;;;;;;;;;-0.04;100.00;101211.53;5072928;28;20421;-70
2021/03/17 03:33:12;;;;;;;;;;;;;;;-0.05;100.00;101209.75;5072869;28;19924;-70
2021/03/17 03:35:39;;;;;;;;;;;;;;;-0.05;100.00;101208.91;5072658;28;19924;-70
2021/03/17 03:38:05;;;;;;;;;;;;;;;-0.07;100.00;101218.72;5072571;28;20031;-70
2021/03/17 03:40:31;;;;;;;;;;;;;;;-0.11;100.00;101220.59;5072571;28;19925;-70
2021/03/17 03:42:58;;;;;;;;;;;;;;;-0.10;100.00;101225.03;5072616;28;19924;-70
2021/03/17 03:45:24;;;;;;;;;;;;;;;-0.10;100.00;101214.34;5072424;28;20332;-70
2021/03/17 03:47:49;;;;;;;;;;;;;;;-0.10;100.00;101213.50;5054189;28;19924;-70
2021/03/17 03:50:17;;;;;;;;;;;;;;;-0.11;100.00;101220.59;5072520;28;19971;-70
2021/03/17 03:52:48;;;;;;;;;;;;;;;-0.09;100.00;101217.94;5072697;28;19925;-69
2021/03/17 03:55:19;;;;;;;;;;;;;;;-0.10;100.00;101213.50;5072300;28;19929;-70
2021/03/17 03:57:46;;;;;;;;;;;;;;;-0.08;100.00;101223.22;5072308;28;19925;-70
2021/03/17 04:00:16;;;;;;;;;;;;;;;-0.06;100.00;101225.84;5054404;28;20573;-69
2021/03/17 04:02:44;;;;;;;;;;;;;;;-0.07;100.00;101218.72;5072437;28;19932;-70
2021/03/17 04:05:11;;;;;;;;;;;;;;;-0.06;100.00;101228.50;5071955;28;19936;-70
2021/03/17 04:07:42;;;;;;;;;;;;;;;-0.08;100.00;101223.22;5071925;28;19924;-70
2021/03/17 04:10:09;;;;;;;;;;;;;;;-0.07;100.00;101222.28;5072071;28;20585;-70
2021/03/17 04:12:37;;;;;;;;;;;;;;;-0.04;100.00;101223.97;5072101;28;19928;-69
2021/03/17 04:15:05;;;;;;;;;;;;;;;0.02;100.00;101228.28;5072011;28;20520;-70
2021/03/17 04:17:34;;;;;;;;;;;;;;;0.05;100.00;101228.19;5071763;28;19924;-70
2021/03/17 04:20:02;;;;;;;;;;;;;;;0.07;100.00;101224.56;5071998;28;19925;-70
2021/03/17 04:22:29;;;;;;;;;;;;;;;0.09;100.00;101233.38;5071998;28;20382;-70
2021/03/17 04:24:56;;;;;;;;;;;;;;;0.12;100.00;101233.31;5071502;28;19928;-70
2021/03/17 04:27:22;;;;;;;;;;;;;;;0.17;100.00;101235.81;5071532;28;20049;-70
2021/03/17 04:29:51;;;;;;;;;;;;;;;0.20;100.00;101235.75;5071948;28;19963;-70
2021/03/17 04:32:18;;;;;;;;;;;;;;;0.25;100.00;101243.63;5071678;28;20447;-70
2021/03/17 04:34:46;;;;;;;;;;;;;;;0.26;100.00;101243.56;5071753;28;20334;-70
2021/03/17 04:37:12;;;;;;;;;;;;;;;0.30;100.00;101252.38;5071363;28;19931;-70
2021/03/17 04:39:39;;;;;;;;;;;;;;;0.27;100.00;101249.81;5071674;28;19925;-70
2021/03/17 04:42:05;;;;;;;;;;;;;;;0.28;100.00;101249.75;5071662;28;20304;-70
2021/03/17 04:44:32;;;;;;;;;;;;;;;0.28;100.00;101255.09;5071437;28;19924;-70
2021/03/17 04:46:58;;;;;;;;;;;;;;;0.32;100.00;101250.50;5071203;28;19936;-70
2021/03/17 04:49:26;;;;;;;;;;;;;;;0.32;100.00;101251.41;5071533;28;19978;-69
2021/03/17 04:51:53;;;;;;;;;;;;;;;0.32;100.00;101251.41;5070908;28;19928;-70
2021/03/17 04:54:19;;;;;;;;;;;;;;;0.31;100.00;101259.47;5071231;28;20452;-70
2021/03/17 04:56:45;;;;;;;;;;;;;;;0.31;100.00;101254.13;5071045;28;19924;-70
2021/03/17 04:59:15;;;;;;;;;;;;;;;0.37;100.00;101259.25;5053344;28;20344;-70
2021/03/17 05:01:42;;;;;;;;;;;;;;;0.41;100.00;101255.56;5071295;28;20419;-70
2021/03/17 05:04:09;;;;;;;;;;;;;;;0.44;100.00;101263.50;5071227;28;19932;-69
2021/03/17 05:06:35;;;;;;;;;;;;;;;0.43;100.00;101267.09;5071118;28;19932;-70
2021/03/17 05:09:02;;;;;;;;;;;;;;;0.46;100.00;101268.81;5053201;28;20318;-70
2021/03/17 05:11:29;;;;;;;;;;;;;;;0.49;100.00;101271.38;5071255;28;20289;-70
2021/03/17 05:13:55;;;;;;;;;;;;;;;0.44;100.00;101274.19;5071083;28;19972;-70
2021/03/17 05:16:21;;;;;;;;;;;;;;;0.45;100.00;101275.06;5070973;28;19924;-70
2021/03/17 05:18:47;;;;;;;;;;;;;;;0.45;100.00;101281.28;5070811;28;20390;-70
2021/03/17 05:21:14;;;;;;;;;;;;;;;0.45;100.00;101280.41;5070862;28;19951;-69
2021/03/17 05:23:41;;;;;;;;;;;;;;;0.43;100.00;101283.13;5070735;28;20386;-70
2021/03/17 05:26:09;;;;;;;;;;;;;;;0.43;100.00;101280.47;5070795;28;19924;-69
2021/03/17 05:28:34;;;;;;;;;;;;;;;0.40;100.00;101280.56;5074756;28;20090;-69
2021/03/17 05:31:01;;;;;;;;;;;;;;;0.43;100.00;101288.47;5070900;28;19932;-69
2021/03/17 05:33:28;;;;;;;;;;;;;;;0.38;100.00;101290.41;5071035;28;19924;-71
2021/03/17 05:35:54;;;;;;;;;;;;;;;0.37;100.00;101283.31;5070434;28;19931;-71
2021/03/17 05:38:20;;;;;;;;;;;;;;;0.41;100.00;101284.94;5075029;28;19928;-72
2021/03/17 05:40:46;;;;;;;;;;;;;;;0.43;100.00;101287.59;5091207;28;19932;-70
2021/03/17 05:43:13;;;;;;;;;;;;;;;0.41;100.00;101284.09;5067513;28;19960;-71
2021/03/17 05:45:39;;;;;;;;;;;;;;;0.41;100.00;101292.97;5070545;28;19925;-71
2021/03/17 05:48:06;;;;;;;;;;;;;;;0.38;100.00;101290.41;5070756;28;19935;-71
2021/03/17 05:50:32;;;;;;;;;;;;;;;0.43;100.00;101288.47;5074404;28;19924;-71
2021/03/17 05:52:58;;;;;;;;;;;;;;;0.45;100.00;101289.28;5079641;28;19932;-71
2021/03/17 05:55:24;;;;;;;;;;;;;;;0.46;100.00;101295.53;5090810;28;20301;-71
2021/03/17 05:57:50;;;;;;;;;;;;;;;0.44;100.00;101300.91;5081588;28;19931;-71
2021/03/17 06:00:19;;;;;;;;;;;;;;;0.45;100.00;101297.28;5070926;28;19963;-71
2021/03/17 06:02:44;;;;;;;;;;;;;;;0.49;100.00;101308.78;5080559;28;19928;-71
2021/03/17 06:05:11;;;;;;;;;;;;;;;0.47;100.00;101307.97;5088071;28;19928;-72
2021/03/17 06:07:41;;;;;;;;;;;;;;;0.52;100.00;101310.47;5055866;28;19975;-71
2021/03/17 06:10:07;;;;;;;;;;;;;;;0.53;100.00;101306.91;5079248;28;19986;-72
2021/03/17 06:12:35;;;;;;;;;;;;;;;0.52;100.00;101303.31;5094721;28;19959;-71
2021/03/17 06:15:02;;;;;;;;;;;;;;;0.55;100.00;101299.69;5089510;28;20007;-71
2021/03/17 06:17:30;;;;;;;;;;;;;;;0.59;100.00;101312.03;5074175;28;20424;-71
2021/03/17 06:19:59;;;;;;;;;;;;;;;0.60;100.00;101311.13;5075489;28;19925;-71
2021/03/17 06:22:25;;;;;;;;;;;;;;;0.73;100.00;101314.31;5074246;28;19929;-71
2021/03/17 06:24:51;;;;;;;;;;;;;;;0.87;100.00;101313.88;5092080;28;19924;-71
2021/03/17 06:27:17;;;;;;;;;;;;;;;0.97;100.00;101320.69;5093884;28;19924;-71
2021/03/17 06:29:43;;;;;;;;;;;;;;;1.04;100.00;101319.53;5077543;28;19925;-71
2021/03/17 06:32:09;;;;;;;;;;;;;;;1.08;100.00;101313.22;5073961;28;20602;-71
2021/03/17 06:34:43;;;;;;;;;;;;;;;1.17;100.00;101314.69;5088857;28;19932;-73
2021/03/17 06:37:09;;;;;;;;;;;;;;;1.34;100.00;101322.16;5093881;28;19982;-72
2021/03/17 06:39:35;;;;;;;;;;;;;;;1.47;100.00;101323.50;5092007;28;19928;-72
2021/03/17 06:42:01;;;;;;;;;;;;;;;1.69;100.00;101321.91;5082033;28;19925;-72
2021/03/17 06:44:28;;;;;;;;;;;;;;;1.93;100.00;101330.88;5073585;28;19928;-72
2021/03/17 06:47:18;;;;;;;;;;;;;;;2.11;100.00;101330.22;5083267;28;19959;-72
2021/03/17 06:49:45;;;;;;;;;;;;;;;2.36;100.00;101331.13;5091341;28;20418;-72
2021/03/17 06:52:31;;;;;;;;;;;;;;;2.41;100.00;101334.50;5064642;28;20015;-73
2021/03/17 06:55:08;;;;;;;;;;;;;;;2.46;100.00;101336.06;5060952;28;19929;-73
2021/03/17 06:57:35;;;;;;;;;;;;;;;2.47;100.00;101335.16;5076953;28;20061;-74
2021/03/17 07:00:34;;;;;;;;;;;;;;;2.45;100.00;101337.00;5073720;28;19931;-73
2021/03/17 07:03:01;;;;;;;;;;;;;;;2.41;100.00;101338.03;5053281;28;19925;-73
2021/03/17 07:05:35;;;;;;;;;;;;;;;2.43;100.00;101338.88;5054213;28;20462;-73
2021/03/17 07:08:01;;;;;;;;;;;;;;;2.51;100.00;101346.59;5093642;28;20278;-73
2021/03/17 07:10:28;;;;;;;;;;;;;;;2.51;100.00;101350.19;5093399;28;20492;-73
2021/03/17 07:12:55;;;;;;;;;;;;;;;2.50;100.00;101348.41;5085529;28;19931;-73
2021/03/17 07:15:21;;;;;;;;;;;;;;;2.49;100.00;101345.81;5072240;28;19977;-73
2021/03/17 07:17:47;;;;;;;;;;;;;;;2.44;100.00;101342.41;5055105;28;20313;-73
2021/03/17 07:20:13;;;;;;;;;;;;;;;2.48;100.00;101346.72;5071982;28;19968;-73
2021/03/17 07:22:40;;;;;;;;;;;;;;;2.46;100.00;101348.56;5072606;28;20394;-74
2021/03/17 07:25:06;;;;;;;;;;;;;;;2.40;100.00;101347.00;5086832;28;19924;-73
2021/03/17 07:27:33;;;;;;;;;;;;;;;2.38;100.00;101348.88;5090952;28;19947;-73
2021/03/17 07:30:10;;;;;;;;;;;;;;;2.44;100.00;101355.81;5093142;28;19970;-73
2021/03/17 07:32:56;;;;;;;;;;;;;;;2.46;100.00;101352.16;5085818;28;20317;-73
2021/03/17 07:35:25;;;;;;;;;;;;;;;2.64;100.00;101355.06;5073826;28;19931;-73
2021/03/17 07:38:02;;;;;;;;;;;;;;;2.87;100.00;101354.16;5080802;28;19947;-73
2021/03/17 07:40:29;;;;;;;;;;;;;;;3.09;100.00;101351.53;5074285;28;19925;-73
2021/03/17 07:42:56;;;;;;;;;;;;;;;3.27;100.00;101344.53;5070114;28;19951;-73
2021/03/17 07:45:23;;;;;;;;;;;;;;;3.43;100.00;101354.63;5072021;28;19939;-74
2021/03/17 07:47:48;;;;;;;;;;;;;;;3.60;100.00;101349.44;5078421;28;19923;-73
2021/03/17 07:50:15;;;;;;;;;;;;;;;3.69;100.00;101348.19;5092859;28;20031;-74
2021/03/17 07:52:41;;;;;;;;;;;;;;;3.77;100.00;101354.09;5079367;28;20372;-73
2021/03/17 07:55:09;;;;;;;;;;;;;;;3.87;100.00;101353.72;5072420;28;20404;-74
2021/03/17 07:57:36;;;;;;;;;;;;;;;3.79;100.00;101351.34;5076599;28;20429;-73
2021/03/17 08:00:03;;;;;;;;;;;;;;;3.85;100.00;101351.09;5069972;28;19942;-74
2021/03/17 08:02:38;;;;;;;;;;;;;;;3.88;100.00;101353.63;5082543;28;19931;-73
2021/03/17 08:05:05;;;;;;;;;;;;;;;4.02;100.00;101350.34;5076320;28;20053;-75
2021/03/17 08:07:31;;;;;;;;;;;;;;;4.07;100.00;101356.38;5076080;28;19924;-73
2021/03/17 08:09:58;;;;;;;;;;;;;;;4.16;100.00;101355.13;5072332;28;19931;-73
2021/03/17 08:12:25;;;;;;;;;;;;;;;4.17;100.00;101352.34;5072479;28;20390;-73
2021/03/17 08:14:52;;;;;;;;;;;;;;;4.26;100.00;101360.94;5072381;28;19924;-73
2021/03/17 08:17:29;;;;;;;;;;;;;;;4.42;100.00;101356.63;5092325;28;20506;-73
2021/03/17 08:20:10;;;;;;;;;;;;;;;4.58;100.00;101361.31;5084027;28;19964;-73
2021/03/17 08:22:36;;;;;;;;;;;;;;;4.79;100.00;101370.19;5071809;28;19929;-73
2021/03/17 08:25:02;;;;;;;;;;;;;;;4.87;100.00;101368.03;5073070;28;19938;-74
2021/03/17 08:27:29;;;;;;;;;;;;;;;4.88;100.00;101368.88;5054528;28;20459;-73
2021/03/17 08:30:11;;;;;;;;;;;;;;;4.76;100.00;101367.66;5072489;28;19929;-73
2021/03/17 08:32:57;;;;;;;;;;;;;;;4.88;100.00;101368.88;5082575;28;19928;-73
2021/03/17 08:35:23;;;;;;;;;;;;;;;4.97;100.00;101369.34;5065871;28;19924;-73
2021/03/17 08:37:50;;;;;;;;;;;;;;;4.99;100.00;101372.81;5084059;28;19932;-73
2021/03/17 08:40:37;;;;;;;;;;;;;;;4.92;100.00;101370.47;5079246;28;20000;-74
2021/03/17 08:43:18;;;;;;;;;;;;;;;4.86;100.00;101377.03;5072951;28;20081;-73
2021/03/17 08:45:45;;;;;;;;;;;;;;;4.63;100.00;101373.59;5070897;28;19924;-73
2021/03/17 08:48:11;;;;;;;;;;;;;;;4.60;100.00;101384.50;5071284;28;19928;-73
2021/03/17 08:50:47;;;;;;;;;;;;;;;4.58;100.00;101382.81;5071116;28;20424;-73
2021/03/17 08:53:34;;;;;;;;;;;;;;;4.58;100.00;101385.50;5073217;28;19932;-73
2021/03/17 08:55:59;;;;;;;;;;;;;;;4.74;100.00;101383.84;5091009;28;19924;-73
2021/03/17 08:58:25;;;;;;;;;;;;;;;4.62;100.00;101387.13;5087501;28;19970;-74
2021/03/17 09:00:53;;;;;;;;;;;;;;;4.61;100.00;101383.56;5072475;28;19925;-73
2021/03/17 09:03:39;;;;;;;;;;;;;;;4.68;100.00;101386.84;5076897;28;19963;-73
2021/03/17 09:06:09;;;;;;;;;;;;;;;4.68;100.00;101382.31;5070897;28;20131;-73
2021/03/17 09:08:51;;;;;;;;;;;;;;;4.67;100.00;101393.16;5071082;28;19925;-73
2021/03/17 09:11:36;;;;;;;;;;;;;;;4.65;100.00;101393.22;5071117;28;20285;-73
2021/03/17 09:14:03;;;;;;;;;;;;;;;4.57;100.00;101392.72;5070863;28;19932;-73
2021/03/17 09:16:31;;;;;;;;;;;;;;;4.45;100.00;101399.50;5053103;28;19986;-73
2021/03/17 09:19:03;;;;;;;;;;;;;;;4.44;100.00;101392.38;5068127;28;19925;-73
2021/03/17 09:21:29;;;;;;;;;;;;;;;4.23;100.00;101393.34;5053342;28;19944;-73
2021/03/17 09:23:55;;;;;;;;;;;;;;;4.09;100.00;101402.88;5072196;28;19935;-73
2021/03/17 09:26:25;;;;;;;;;;;;;;;4.05;100.00;101398.59;5080320;28;19925;-73
2021/03/17 09:28:51;;;;;;;;;;;;;;;4.08;100.00;101401.13;5073173;28;19973;-73
2021/03/17 09:31:17;;;;;;;;;;;;;;;4.08;100.00;101400.28;5082342;28;20083;-73
2021/03/17 09:33:44;;;;;;;;;;;;;;;4.13;100.00;101408.97;5070489;28;19932;-73
2021/03/17 09:36:11;;;;;;;;;;;;;;;4.10;100.00;101407.34;5074493;28;19931;-73
2021/03/17 09:38:39;;;;;;;;;;;;;;;4.01;100.00;101410.41;5074808;28;19924;-73
2021/03/17 09:41:09;;;;;;;;;;;;;;;3.97;100.00;101409.66;5074875;28;20001;-73
2021/03/17 09:43:36;;;;;;;;;;;;;;;3.88;100.00;101412.72;5074990;28;19932;-74
2021/03/17 09:46:17;;;;;;;;;;;;;;;3.91;100.00;101417.97;5080816;28;19924;-73
2021/03/17 09:48:44;;;;;;;;;;;;;;;4.01;100.00;101415.78;5076852;28;19932;-73
2021/03/17 09:51:14;;;;;;;;;;;;;;;4.02;100.00;101417.50;5087813;28;20391;-73
2021/03/17 09:53:40;;;;;;;;;;;;;;;4.08;100.00;101422.63;5074562;28;19931;-73
2021/03/17 09:56:06;;;;;;;;;;;;;;;4.08;100.00;101416.41;5074673;28;20286;-73
2021/03/17 09:58:32;;;;;;;;;;;;;;;4.04;100.00;101421.00;5074110;28;19939;-73
2021/03/17 10:01:06;;;;;;;;;;;;;;;4.11;100.00;101424.31;5073523;28;19939;-73
2021/03/17 10:03:32;;;;;;;;;;;;;;;4.02;100.00;101428.25;5074540;28;19929;-72
2021/03/17 10:05:59;;;;;;;;;;;;;;;4.06;100.00;101437.94;5074500;28;20401;-73
2021/03/17 10:08:25;;;;;;;;;;;;;;;4.12;100.00;101426.06;5074364;28;20325;-72
2021/03/17 10:10:51;;;;;;;;;;;;;;;4.16;100.00;101431.22;5073507;28;19925;-72
2021/03/17 10:13:17;;;;;;;;;;;;;;;4.23;100.00;101430.97;5093586;28;19974;-72
2021/03/17 10:15:44;;;;;;;;;;;;;;;4.32;100.00;101433.25;5080753;28;19924;-72
2021/03/17 10:18:14;;;;;;;;;;;;;;;4.47;100.00;101432.56;5094445;28;19932;-72
2021/03/17 10:20:40;;;;;;;;;;;;;;;4.69;100.00;101439.69;5085721;28;19979;-74
2021/03/17 10:23:07;;;;;;;;;;;;;;;4.62;100.00;101441.78;5083389;28;19924;-72
2021/03/17 10:25:33;;;;;;;;;;;;;;;4.67;100.00;101431.66;5039647;28;19931;-73
2021/03/17 10:28:04;;;;;;;;;;;;;;;4.65;100.00;101436.25;5073700;28;19983;-73
2021/03/17 10:30:31;;;;;;;;;;;;;;;4.57;100.00;101435.75;5075335;28;19925;-73
2021/03/17 10:33:01;;;;;;;;;;;;;;;4.45;100.00;101437.16;5073743;28;20023;-73
2021/03/17 10:35:27;;;;;;;;;;;;;;;4.39;100.00;101436.56;5074003;28;19932;-72
2021/03/17 10:37:53;;;;;;;;;;;;;;;4.39;100.00;101439.25;5066128;28;19925;-72
2021/03/17 10:40:21;;;;;;;;;;;;;;;4.30;100.00;101437.81;5068597;28;19925;-72
2021/03/17 10:42:48;;;;;;;;;;;;;;;4.35;100.00;101438.50;5055643;28;19955;-73
2021/03/17 10:45:15;;;;;;;;;;;;;;;4.47;100.00;101440.63;5073661;28;20574;-73
2021/03/17 10:47:42;;;;;;;;;;;;;;;4.70;100.00;101444.09;5081034;28;19924;-72
2021/03/17 10:50:09;;;;;;;;;;;;;;;4.98;100.00;101446.44;5068310;28;19932;-72
2021/03/17 10:52:37;;;;;;;;;;;;;;;5.28;100.00;101442.38;5073172;28;19989;-72
2021/03/17 10:55:09;;;;;;;;;;;;;;;5.57;100.00;101438.25;5073535;28;19975;-73
2021/03/17 10:57:36;;;;;;;;;;;;;;;5.81;100.00;101430.81;5074869;28;20035;-73
2021/03/17 11:00:20;;;;;;;;;;;;;;;5.93;100.00;101429.28;5073275;28;19930;-73
2021/03/17 11:02:46;;;;;;;;;;;;;;;5.98;100.00;101429.09;5080327;28;20293;-73
2021/03/17 11:05:16;;;;;;;;;;;;;;;5.89;100.00;101429.53;5073597;28;19928;-74
2021/03/17 11:07:52;;;;;;;;;;;;;;;5.56;100.00;101433.84;5074424;28;19931;-73
2021/03/17 11:10:32;;;;;;;;;;;;;;;5.33;100.00;101430.44;5073155;28;19925;-73
2021/03/17 11:12:59;;;;;;;;;;;;;;;5.22;100.00;101432.75;5073465;28;20382;-73
2021/03/17 11:15:26;;;;;;;;;;;;;;;5.25;100.00;101429.94;5071876;28;19952;-73
2021/03/17 11:17:52;;;;;;;;;;;;;;;5.58;100.00;101429.22;5072897;28;19924;-73
2021/03/17 11:20:18;;;;;;;;;;;;;;;6.00;100.00;101420.00;5065628;28;20028;-73
2021/03/17 11:22:44;;;;;;;;;;;;;;;6.37;100.00;101422.59;5065033;28;20019;-73
2021/03/17 11:25:12;;;;;;;;;;;;;;;6.67;100.00;101416.53;5072706;28;19999;-73
2021/03/17 11:27:39;;;;;;;;;;;;;;;7.25;100.00;101420.53;5057854;28;20385;-73
2021/03/17 11:30:07;;;;;;;;;;;;;;;7.60;100.00;101416.78;5074174;28;20447;-74
2021/03/17 11:32:33;;;;;;;;;;;;;;;7.49;100.00;101418.28;5072562;28;19931;-73
2021/03/17 11:34:59;;;;;;;;;;;;;;;7.43;100.00;101412.34;5072833;28;19924;-73
2021/03/17 11:37:25;;;;;;;;;;;;;;;7.62;100.00;101414.88;5072498;28;19924;-74
2021/03/17 11:39:51;;;;;;;;;;;;;;;8.11;100.00;101408.41;5092237;28;20027;-74
2021/03/17 11:42:16;;;;;;;;;;;;;;;8.27;100.00;101411.06;5081989;28;20368;-73
2021/03/17 11:44:43;;;;;;;;;;;;;;;8.48;100.00;101408.91;5089761;28;19931;-73
2021/03/17 11:47:10;;;;;;;;;;;;;;;8.91;100.00;101419.75;5092160;28;19962;-73
2021/03/17 11:49:36;;;;;;;;;;;;;;;8.93;100.00;101407.00;5083577;28;19928;-73
2021/03/17 11:52:02;;;;;;;;;;;;;;;9.01;100.00;101411.94;5072395;28;19924;-73
2021/03/17 11:54:28;;;;;;;;;;;;;;;10.08;100.00;101403.09;5077626;28;20335;-71
2021/03/17 11:56:56;;;;;;;;;;;;;;;10.57;100.00;101407.00;5089352;28;19969;-74
2021/03/17 11:59:22;;;;;;;;;;;;;;;10.99;100.00;101410.31;5072209;28;19931;-73
2021/03/17 12:01:48;;;;;;;;;;;;;;;10.81;100.00;101404.38;5071878;28;19956;-71
2021/03/17 12:04:15;;;;;;;;;;;;;;;10.61;100.00;101405.78;5072408;28;20023;-73
2021/03/17 12:06:41;;;;;;;;;;;;;;;10.71;100.00;101404.16;5071729;28;20027;-74
2021/03/17 12:09:11;;;;;;;;;;;;;;;11.42;100.00;101397.31;5089121;28;21314;-73
2021/03/17 12:11:39;;;;;;;;;;;;;;;12.23;96.30;101390.28;5078870;28;19928;-73
2021/03/17 12:14:05;;;;;;;;;;;;;;;12.04;96.77;101393.56;5074881;28;19974;-73
2021/03/17 12:16:31;;;;;;;;;;;;;;;11.57;93.49;101396.13;5071674;28;19960;-73
2021/03/17 12:18:56;;;;;;;;;;;;;;;10.55;99.03;101398.06;5086996;28;19970;-73
2021/03/17 12:21:23;;;;;;;;;;;;;;;9.54;100.00;101415.69;5079174;28;20011;-73
2021/03/17 12:23:50;;;;;;;;;;;;;;;8.94;100.00;101432.22;5071440;28;19924;-72
2021/03/17 12:26:17;;;;;;;;;;;;;;;7.89;100.00;101428.59;5071339;28;19935;-73
2021/03/17 12:28:43;;;;;;;;;;;;;;;7.17;100.00;101430.91;5071617;28;19982;-73
2021/03/17 12:31:09;;;;;;;;;;;;;;;6.49;100.00;101434.56;5071479;28;20400;-73
2021/03/17 12:33:35;;;;;;;;;;;;;;;5.47;100.00;101435.13;5068131;28;19968;-73
2021/03/17 12:36:01;;;;;;;;;;;;;;;5.01;100.00;101440.00;5091453;28;19997;-72
2021/03/17 12:38:28;;;;;;;;;;;;;;;4.78;100.00;101433.00;5079470;28;20015;-72
2021/03/17 12:40:54;;;;;;;;;;;;;;;4.67;100.00;101438.88;5071324;28;19960;-71
2021/03/17 12:43:19;;;;;;;;;;;;;;;4.55;100.00;101434.91;5082471;28;19924;-72
2021/03/17 12:45:45;;;;;;;;;;;;;;;4.63;100.00;101443.50;5072823;28;19936;-72